Time;durP1;ratioP1;P1;durP2;ratioP2;P2;SDS_P1;SDS_P2;PMS_P1;PMS_P2;Temp;Humidity;BMP_temperature;BMP_pressure;BME280_temperature;BME280_humidity;BME280_pressure;Samples;Min_cycle;Max_cycle;Signal;HPM_P1;HPM_P2
2022/03/27 00:00:28;;;;;;;41.15;21.23;;;11.20;58.00;;;;;;5051508;28;20031;-87
2022/03/27 00:02:54;;;;;;;47.53;21.35;;;11.10;58.30;;;;;;5050273;28;20033;-87
2022/03/27 00:05:20;;;;;;;37.08;19.63;;;11.10;58.90;;;;;;5052362;28;20464;-86
2022/03/27 00:07:46;;;;;;;44.30;20.23;;;11.10;59.30;;;;;;5052208;28;20408;-88
2022/03/27 00:10:11;;;;;;;41.45;21.00;;;11.20;58.80;;;;;;5051552;28;20025;-87
2022/03/27 00:12:37;;;;;;;44.42;20.20;;;11.20;59.00;;;;;;5051308;28;20017;-87
2022/03/27 00:15:04;;;;;;;39.72;20.25;;;11.10;59.30;;;;;;5051539;28;20460;-86
2022/03/27 00:17:32;;;;;;;43.17;20.83;;;11.10;59.60;;;;;;5051060;28;20063;-86
2022/03/27 00:20:03;;;;;;;45.03;21.30;;;11.10;59.90;;;;;;5051210;28;20021;-87
2022/03/27 00:22:29;;;;;;;43.63;21.08;;;11.00;60.60;;;;;;5051272;28;20069;-87
2022/03/27 00:24:56;;;;;;;41.65;20.13;;;11.00;60.70;;;;;;5033445;28;20147;-86
2022/03/27 00:27:22;;;;;;;45.60;20.30;;;10.90;61.10;;;;;;5033646;28;20381;-86
2022/03/27 00:29:49;;;;;;;41.28;19.90;;;11.00;60.90;;;;;;5033798;28;20029;-87
2022/03/27 00:32:14;;;;;;;44.33;21.27;;;11.00;61.60;;;;;;5050690;28;20377;-87
2022/03/27 00:34:40;;;;;;;44.50;20.75;;;11.00;61.50;;;;;;5050799;28;20116;-86
2022/03/27 00:37:06;;;;;;;40.17;20.88;;;10.90;61.40;;;;;;5050857;28;20396;-87
2022/03/27 00:39:31;;;;;;;51.55;21.75;;;10.90;62.10;;;;;;5050710;28;20056;-87
2022/03/27 00:41:57;;;;;;;44.22;21.75;;;10.90;62.40;;;;;;5051576;28;20115;-88
2022/03/27 00:44:24;;;;;;;48.25;22.25;;;10.90;62.60;;;;;;5051380;28;20057;-88
2022/03/27 00:46:49;;;;;;;42.20;20.98;;;10.80;62.60;;;;;;5033441;28;20029;-88
2022/03/27 00:49:15;;;;;;;39.90;21.48;;;10.90;62.70;;;;;;5049344;28;20036;-86
2022/03/27 00:51:41;;;;;;;43.78;22.80;;;10.90;63.00;;;;;;5050523;28;20036;-87
2022/03/27 00:54:07;;;;;;;45.55;21.40;;;10.80;63.20;;;;;;5050514;28;20025;-86
2022/03/27 00:56:33;;;;;;;46.03;21.58;;;10.80;63.70;;;;;;5032675;28;20032;-86
2022/03/27 00:58:58;;;;;;;44.85;22.02;;;10.80;63.60;;;;;;5049387;28;20387;-86
2022/03/27 01:01:38;;;;;;;48.15;20.95;;;10.70;64.40;;;;;;5050180;28;20107;-86
2022/03/27 01:04:06;;;;;;;41.03;21.52;;;10.70;64.70;;;;;;5049295;28;20439;-88
2022/03/27 01:06:36;;;;;;;;;;;10.70;64.80;;;;;;5050708;28;20539;-85
2022/03/27 01:11:49;;;;;;;47.33;21.83;;;10.70;64.70;;;;;;5051278;28;20036;-85
2022/03/27 01:14:26;;;;;;;47.85;21.98;;;10.70;65.50;;;;;;5050075;28;20404;-86
2022/03/27 01:17:10;;;;;;;44.63;22.38;;;10.60;65.50;;;;;;5032869;28;20539;-86
2022/03/27 01:19:47;;;;;;;40.22;21.75;;;10.60;65.60;;;;;;5049987;28;20025;-84
2022/03/27 01:22:14;;;;;;;43.22;21.77;;;10.70;66.20;;;;;;5032175;28;20381;-84
2022/03/27 01:24:39;;;;;;;46.72;23.17;;;10.60;66.30;;;;;;5050004;28;20024;-85
2022/03/27 01:27:06;;;;;;;43.70;23.35;;;10.60;66.40;;;;;;5049925;28;20029;-90
2022/03/27 01:29:32;;;;;;;46.05;22.92;;;10.70;65.90;;;;;;5049663;28;20029;-86
2022/03/27 01:31:58;;;;;;;42.00;22.98;;;10.60;66.40;;;;;;5049747;28;20067;-86
2022/03/27 01:34:24;;;;;;;45.60;22.88;;;10.60;66.80;;;;;;5050629;28;20427;-87
2022/03/27 01:36:50;;;;;;;47.08;22.85;;;10.60;66.20;;;;;;5049785;28;20070;-85
2022/03/27 01:39:16;;;;;;;43.85;22.77;;;10.60;66.80;;;;;;5049653;28;20497;-87
2022/03/27 01:41:43;;;;;;;42.60;21.88;;;10.60;67.10;;;;;;5049535;28;20033;-85
2022/03/27 01:44:11;;;;;;;45.55;21.83;;;10.50;67.20;;;;;;5031414;28;20021;-85
2022/03/27 01:46:41;;;;;;;45.35;22.52;;;10.50;67.60;;;;;;5049669;28;20104;-85
2022/03/27 01:49:09;;;;;;;46.80;23.13;;;10.50;67.90;;;;;;5049832;28;20029;-85
2022/03/27 01:51:36;;;;;;;45.60;22.95;;;10.50;67.10;;;;;;5031825;28;20043;-86
2022/03/27 01:54:02;;;;;;;49.63;23.25;;;10.50;68.20;;;;;;5049528;28;20174;-84
2022/03/27 01:56:28;;;;;;;44.85;22.42;;;10.50;68.10;;;;;;5031631;28;20443;-85
2022/03/27 01:58:54;;;;;;;41.20;22.15;;;10.40;68.70;;;;;;5050285;28;20052;-85
2022/03/27 02:01:20;;;;;;;46.72;22.58;;;10.40;68.50;;;;;;5049325;28;20384;-85
2022/03/27 02:03:47;;;;;;;44.20;22.30;;;10.40;68.30;;;;;;5048332;28;20032;-86
2022/03/27 02:06:13;;;;;;;47.38;23.00;;;10.40;67.90;;;;;;5049589;28;20056;-86
2022/03/27 02:08:39;;;;;;;60.65;24.63;;;10.40;68.60;;;;;;5032377;28;20036;-87
2022/03/27 02:11:06;;;;;;;48.72;22.23;;;10.40;69.00;;;;;;5049520;28;20108;-86
2022/03/27 02:13:32;;;;;;;52.30;23.00;;;10.40;69.50;;;;;;5031463;28;20029;-85
2022/03/27 02:15:59;;;;;;;51.95;24.00;;;10.30;70.10;;;;;;5048975;28;20025;-84
2022/03/27 02:18:27;;;;;;;44.40;22.08;;;10.30;70.10;;;;;;5044687;28;20017;-89
2022/03/27 02:20:54;;;;;;;48.45;22.42;;;10.20;70.90;;;;;;5031460;28;20393;-88
2022/03/27 02:23:21;;;;;;;43.75;22.83;;;10.20;70.50;;;;;;5049543;28;20013;-85
2022/03/27 02:25:48;;;;;;;41.95;23.10;;;10.20;70.10;;;;;;5049064;28;20036;-86
2022/03/27 02:28:13;;;;;;;54.13;24.80;;;10.20;70.90;;;;;;5031238;28;20028;-89
2022/03/27 02:30:41;;;;;;;49.13;22.85;;;10.10;71.70;;;;;;5049507;28;20033;-86
2022/03/27 02:33:06;;;;;;;46.22;23.42;;;10.10;72.20;;;;;;5048608;28;20365;-87
2022/03/27 02:35:32;;;;;;;45.42;23.40;;;10.10;71.50;;;;;;5049063;28;20512;-86
2022/03/27 02:37:58;;;;;;;46.22;23.10;;;10.10;72.50;;;;;;5049915;28;20025;-87
2022/03/27 02:40:24;;;;;;;43.28;22.73;;;10.10;72.90;;;;;;5049727;28;20615;-87
2022/03/27 02:42:49;;;;;;;45.33;23.33;;;10.00;73.40;;;;;;5052422;28;20041;-87
2022/03/27 02:45:15;;;;;;;49.95;23.80;;;;;;;;;;5036533;28;20026;-86
2022/03/27 02:47:41;;;;;;;44.20;22.52;;;;;;;;;;5031090;28;20071;-87
2022/03/27 02:50:08;;;;;;;47.17;23.23;;;;;;;;;;5048723;28;20021;-86
2022/03/27 02:52:34;;;;;;;58.75;23.75;;;;;;;;;;5048835;28;20103;-87
2022/03/27 02:55:01;;;;;;;49.38;22.48;;;;;;;;;;5032919;28;20029;-86
2022/03/27 02:57:27;;;;;;;44.80;23.45;;;;;;;;;;5053424;28;20503;-87
2022/03/27 02:59:53;;;;;;;51.70;23.85;;;;;;;;;;5052735;28;20029;-86
2022/03/27 03:02:22;;;;;;;48.35;24.10;;;;;;;;;;5052202;28;20087;-86
2022/03/27 03:04:48;;;;;;;49.40;23.33;;;;;;;;;;5034497;28;20024;-86
2022/03/27 03:07:14;;;;;;;54.35;24.23;;;;;;;;;;5034679;28;20033;-87
2022/03/27 03:09:41;;;;;;;48.67;23.77;;;;;;;;;;5052352;28;20427;-86
2022/03/27 03:12:07;;;;;;;45.03;22.95;;;;;;;;;;5034099;28;20064;-88
2022/03/27 03:14:34;;;;;;;48.60;23.42;;;;;;;;;;5052024;28;20035;-87
2022/03/27 03:17:00;;;;;;;44.53;23.48;;;;;;;;;;5053085;28;20108;-89
2022/03/27 03:19:26;;;;;;;46.75;22.05;;;;;;;;;;5052409;28;20033;-88
2022/03/27 03:21:52;;;;;;;46.65;23.48;;;;;;;;;;5051571;28;20076;-85
2022/03/27 03:24:18;;;;;;;48.30;23.55;;;;;;;;;;5052016;28;20491;-88
2022/03/27 03:26:44;;;;;;;47.42;25.05;;;;;;;;;;5052277;28;20082;-86
2022/03/27 03:29:11;;;;;;;48.30;24.10;;;;;;;;;;5052052;28;20120;-89
2022/03/27 03:31:37;;;;;;;46.67;23.50;;;;;;;;;;5034374;28;20029;-89
2022/03/27 03:34:03;;;;;;;51.03;23.75;;;;;;;;;;5052641;28;20029;-87
2022/03/27 03:36:29;;;;;;;44.58;24.10;;;;;;;;;;5035450;28;20025;-89
2022/03/27 03:38:55;;;;;;;44.10;24.05;;;;;;;;;;5051788;28;20031;-88
2022/03/27 03:41:21;;;;;;;50.72;24.42;;;;;;;;;;5034295;28;20082;-87
2022/03/27 03:43:47;;;;;;;49.85;24.42;;;;;;;;;;5034559;28;20423;-86
2022/03/27 03:46:13;;;;;;;42.08;22.55;;;;;;;;;;5052388;28;20086;-87
2022/03/27 03:48:40;;;;;;;47.13;24.00;;;;;;;;;;5034346;28;20029;-88
2022/03/27 03:51:06;;;;;;;39.97;21.25;;;;;;;;;;5033854;28;20033;-90
2022/03/27 03:53:32;;;;;;;45.88;23.77;;;;;;;;;;5052685;28;20025;-88
2022/03/27 03:55:58;;;;;;;48.47;24.33;;;;;;;;;;5052372;28;20147;-89
2022/03/27 03:58:25;;;;;;;46.75;24.40;;;;;;;;;;5033912;28;20037;-87
2022/03/27 04:00:51;;;;;;;41.60;23.30;;;;;;;;;;5051688;28;20020;-86
2022/03/27 04:03:17;;;;;;;44.47;23.27;;;;;;;;;;5052007;28;20029;-88
2022/03/27 04:05:43;;;;;;;41.35;23.65;;;;;;;;;;5033725;28;20035;-88
2022/03/27 04:08:09;;;;;;;41.15;22.88;;;;;;;;;;5032620;28;20549;-87
2022/03/27 04:10:35;;;;;;;44.75;23.02;;;;;;;;;;5033889;28;20025;-87
2022/03/27 04:13:01;;;;;;;44.97;23.92;;;;;;;;;;5034471;28;20029;-87
2022/03/27 04:15:27;;;;;;;43.83;22.77;;;;;;;;;;5051196;28;20021;-86
2022/03/27 04:17:53;;;;;;;50.75;23.80;;;;;;;;;;5033342;28;20028;-87
2022/03/27 04:20:19;;;;;;;45.45;23.48;;;;;;;;;;5033661;28;20032;-87
2022/03/27 04:22:46;;;;;;;46.55;23.67;;;;;;;;;;5033653;28;20029;-87
2022/03/27 04:25:12;;;;;;;43.80;23.85;;;;;;;;;;5051146;28;20031;-87
2022/03/27 04:27:39;;;;;;;42.58;23.45;;;;;;;;;;5032859;28;20068;-89
2022/03/27 04:30:09;;;;;;;46.45;23.75;;;;;;;;;;5034130;28;20448;-87
2022/03/27 04:32:35;;;;;;;42.90;21.77;;;;;;;;;;5052124;28;20369;-88
2022/03/27 04:35:02;;;;;;;46.60;23.45;;;;;;;;;;5034320;28;20017;-88
2022/03/27 04:37:28;;;;;;;44.22;23.05;;;;;;;;;;5032838;28;20029;-88
2022/03/27 04:40:01;;;;;;;50.90;25.20;;;;;;;;;;5051044;28;20027;-88
2022/03/27 04:42:27;;;;;;;47.58;24.80;;;;;;;;;;5033150;28;20481;-88
2022/03/27 04:44:53;;;;;;;46.10;24.13;;;;;;;;;;5050708;28;20036;-86
2022/03/27 04:47:20;;;;;;;44.40;23.48;;;;;;;;;;5050940;28;20397;-87
2022/03/27 04:49:45;;;;;;;41.78;23.33;;;;;;;;;;5050865;28;20021;-88
2022/03/27 04:52:11;;;;;;;45.00;23.23;;;;;;;;;;5032805;28;20067;-88
2022/03/27 04:54:38;;;;;;;45.38;23.50;;;;;;;;;;5032551;28;20603;-87
2022/03/27 04:57:04;;;;;;;47.00;22.88;;;;;;;;;;5033344;28;20033;-86
2022/03/27 04:59:30;;;;;;;48.35;25.15;;;;;;;;;;5050214;28;20449;-86
2022/03/27 05:02:00;;;;;;;49.88;24.40;;;;;;;;;;5032728;28;20033;-87
2022/03/27 05:04:26;;;;;;;42.85;22.60;;;;;;;;;;5032643;28;20048;-87
2022/03/27 05:06:53;;;;;;;49.60;23.27;;;;;;;;;;5032476;28;20120;-88
2022/03/27 05:09:19;;;;;;;54.20;23.92;;;;;;;;;;5049972;28;20082;-87
2022/03/27 05:11:45;;;;;;;45.63;22.85;;;;;;;;;;5050700;28;20021;-87
2022/03/27 05:14:11;;;;;;;48.22;24.60;;;;;;;;;;5050596;28;20104;-86
2022/03/27 05:16:37;;;;;;;48.00;24.65;;;;;;;;;;5051214;28;20109;-88
2022/03/27 05:19:06;;;;;;;52.30;25.17;;;;;;;;;;5050427;28;20029;-86
2022/03/27 05:21:33;;;;;;;48.50;24.83;;;;;;;;;;5031932;28;20025;-86
2022/03/27 05:23:59;;;;;;;48.45;24.25;;;;;;;;;;5050245;28;20036;-89
2022/03/27 05:26:26;;;;;;;50.40;24.45;;;;;;;;;;5050187;28;20055;-86
2022/03/27 05:28:52;;;;;;;41.78;23.05;;;;;;;;;;5049453;28;20025;-87
2022/03/27 05:31:19;;;;;;;52.60;25.27;;;;;;;;;;5049807;28;20021;-88
2022/03/27 05:33:45;;;;;;;57.72;24.98;;;;;;;;;;5049540;28;20479;-87
2022/03/27 05:36:11;;;;;;;46.00;23.92;;;;;;;;;;5049812;28;20440;-88
2022/03/27 05:38:38;;;;;;;46.33;24.40;;;;;;;;;;5050670;28;20029;-87
2022/03/27 05:41:04;;;;;;;42.95;22.67;;;;;;;;;;5049715;28;20472;-88
2022/03/27 05:43:30;;;;;;;51.17;25.17;;;;;;;;;;5031995;28;20032;-87
2022/03/27 05:45:56;;;;;;;47.33;24.73;;;;;;;;;;5049149;28;20040;-87
2022/03/27 05:48:22;;;;;;;43.10;22.70;;;;;;;;;;5049712;28;20027;-87
2022/03/27 05:50:48;;;;;;;47.10;23.63;;;;;;;;;;5049254;28;20025;-89
2022/03/27 05:53:15;;;;;;;42.40;23.40;;;;;;;;;;5031584;28;20024;-86
2022/03/27 05:55:41;;;;;;;45.60;23.58;;;;;;;;;;5049915;28;20112;-87
2022/03/27 05:58:07;;;;;;;51.40;25.45;;;;;;;;;;5050915;28;20036;-85
2022/03/27 06:00:34;;;;;;;50.88;23.85;;;;;;;;;;5049630;28;20021;-87
2022/03/27 06:03:00;;;;;;;42.00;22.55;;;;;;;;;;5048952;28;20370;-89
2022/03/27 06:05:26;;;;;;;50.03;24.38;;;;;;;;;;5031415;28;20443;-87
2022/03/27 06:07:54;;;;;;;42.70;23.75;;;;;;;;;;5031803;28;20495;-86
2022/03/27 06:10:22;;;;;;;44.67;22.92;;;;;;;;;;5048910;28;20025;-88
2022/03/27 06:12:48;;;;;;;49.83;23.75;;;;;;;;;;5031653;28;20054;-86
2022/03/27 06:15:14;;;;;;;53.22;24.75;;;;;;;;;;5048392;28;20071;-86
2022/03/27 06:17:42;;;;;;;47.03;23.92;;;;;;;;;;5050004;28;20052;-87
2022/03/27 06:20:09;;;;;;;48.78;23.83;;;;;;;;;;5050039;28;20021;-88
2022/03/27 06:22:35;;;;;;;45.80;24.02;;;;;;;;;;5030128;28;20059;-88
2022/03/27 06:25:01;;;;;;;47.05;23.83;;;;;;;;;;5031648;28;20469;-90
2022/03/27 06:27:27;;;;;;;42.65;22.60;;;;;;;;;;5030779;28;20548;-88
2022/03/27 06:29:53;;;;;;;43.30;22.42;;;;;;;;;;5032729;28;20033;-88
2022/03/27 06:32:20;;;;;;;44.53;23.52;;;;;;;;;;5036079;28;20123;-88
2022/03/27 06:34:46;;;;;;;50.67;23.65;;;;;;;;;;5034907;28;20021;-87
2022/03/27 06:37:12;;;;;;;44.20;22.48;;;;;;;;;;5036124;28;20124;-88
2022/03/27 06:39:38;;;;;;;41.88;22.80;;;;;;;;;;5053655;28;20395;-88
2022/03/27 06:42:04;;;;;;;46.60;22.83;;;;;;;;;;5053527;28;20491;-89
2022/03/27 06:44:31;;;;;;;48.08;22.67;;;;;;;;;;5035737;28;20080;-88
2022/03/27 06:46:57;;;;;;;46.88;23.75;;;;;;;;;;5035782;28;20036;-89
2022/03/27 06:49:23;;;;;;;48.55;23.98;;;;;;;;;;5036019;28;20170;-88
2022/03/27 06:51:49;;;;;;;45.17;23.25;;;;;;;;;;5052966;28;20025;-86
2022/03/27 06:54:15;;;;;;;45.45;23.63;;;;;;;;;;5052520;28;20548;-87
2022/03/27 06:56:42;;;;;;;47.85;24.40;;;;;;;;;;5053081;28;20119;-87
2022/03/27 06:59:09;;;;;;;45.25;22.50;;;;;;;;;;5051598;28;20051;-86
2022/03/27 07:04:19;;;;;;;47.25;23.73;;;;;;;;;;5032379;28;20036;-84
2022/03/27 07:06:46;;;;;;;49.75;22.83;;;;;;;;;;5032133;28;20029;-86
2022/03/27 07:09:13;;;;;;;48.38;23.05;;;;;;;;;;5035994;28;20134;-87
2022/03/27 07:11:39;;;;;;;54.20;23.38;;;;;;;;;;5033734;28;20419;-88
2022/03/27 07:14:05;;;;;;;45.83;22.42;;;;;;;;;;5067466;28;20209;-85
2022/03/27 07:16:31;;;;;;;42.17;22.25;;;;;;;;;;5051351;28;20029;-84
2022/03/27 07:18:58;;;;;;;47.63;23.85;;;;;;;;;;5046384;28;20055;-84
2022/03/27 07:21:24;;;;;;;40.55;22.73;;;;;;;;;;5043344;28;20037;-87
2022/03/27 07:23:50;;;;;;;42.47;22.17;;;;;;;;;;5042671;28;20025;-90
2022/03/27 07:26:17;;;;;;;47.95;23.30;;;;;;;;;;5064678;28;20025;-86
2022/03/27 07:28:43;;;;;;;47.95;22.65;;;;;;;;;;5045400;28;20037;-85
2022/03/27 07:31:11;;;;;;;41.17;21.08;;;;;;;;;;5050103;28;20554;-83
2022/03/27 07:33:38;;;;;;;44.28;22.88;;;;;;;;;;5031727;28;20060;-87
2022/03/27 07:36:04;;;;;;;41.35;21.90;;;;;;;;;;5047827;28;20036;-84
2022/03/27 07:38:31;;;;;;;45.55;22.27;;;;;;;;;;5034251;28;20021;-88
2022/03/27 07:40:59;;;;;;;39.88;22.27;;;;;;;;;;5043539;28;20055;-86
2022/03/27 07:43:25;;;;;;;43.70;22.65;;;;;;;;;;5032712;28;20025;-84
2022/03/27 07:45:51;;;;;;;40.83;21.95;;;;;;;;;;5048216;28;20457;-92
2022/03/27 07:48:17;;;;;;;47.45;22.42;;;;;;;;;;5039351;28;20033;-88
2022/03/27 07:50:44;;;;;;;36.35;21.55;;;;;;;;;;5050774;28;20021;-85
2022/03/27 07:53:10;;;;;;;38.55;21.27;;;;;;;;;;5031739;28;20489;-88
2022/03/27 07:55:37;;;;;;;40.63;20.92;;;;;;;;;;5032240;28;20025;-90
2022/03/27 07:58:04;;;;;;;38.03;21.33;;;;;;;;;;5049335;28;20029;-86
2022/03/27 08:00:30;;;;;;;40.72;21.52;;;;;;;;;;5049655;28;20036;-90
2022/03/27 08:02:56;;;;;;;42.25;22.50;;;;;;;;;;5050173;28;20119;-87
2022/03/27 08:05:23;;;;;;;40.22;21.90;;;;;;;;;;5051092;28;20021;-90
2022/03/27 08:07:49;;;;;;;45.00;21.98;;;;;;;;;;5051077;28;20059;-90
2022/03/27 08:10:15;;;;;;;40.80;21.95;;;;;;;;;;5050795;28;20053;-88
2022/03/27 08:12:42;;;;;;;39.15;20.92;;;;;;;;;;5050688;28;20033;-92
2022/03/27 08:15:08;;;;;;;46.80;22.40;;;;;;;;;;5051243;28;20060;-87
2022/03/27 08:17:34;;;;;;;39.38;20.58;;;;;;;;;;5049998;28;20484;-88
2022/03/27 08:20:01;;;;;;;46.70;21.52;;;;;;;;;;5049636;28;20025;-89
2022/03/27 08:22:27;;;;;;;46.85;21.95;;;;;;;;;;5050925;28;20633;-88
2022/03/27 08:24:53;;;;;;;39.92;21.35;;;;;;;;;;5050142;28;20391;-89
2022/03/27 08:27:20;;;;;;;37.47;20.30;;;;;;;;;;5050026;28;20102;-89
2022/03/27 08:29:46;;;;;;;38.50;20.67;;;;;;;;;;5051761;28;20116;-89
2022/03/27 08:32:13;;;;;;;42.47;20.95;;;;;;;;;;5050813;28;20024;-90
2022/03/27 08:34:40;;;;;;;42.40;21.17;;;;;;;;;;5049783;28;20029;-89
2022/03/27 08:37:07;;;;;;;41.08;21.08;;;;;;;;;;5049725;28;20031;-89
2022/03/27 08:39:34;;;;;;;39.72;20.92;;;;;;;;;;5049872;28;20472;-92
2022/03/27 08:42:00;;;;;;;40.15;20.35;;;;;;;;;;5049849;28;20076;-91
2022/03/27 08:44:42;;;;;;;39.90;21.35;;;;;;;;;;5051469;28;20029;-95
2022/03/27 08:47:15;;;;;;;41.95;21.30;;;;;;;;;;5050733;28;20052;-90
2022/03/27 08:49:47;;;;;;;38.28;21.63;;;;;;;;;;5050575;28;20032;-91
2022/03/27 08:52:16;;;;;;;43.10;22.27;;;;;;;;;;5050697;28;20067;-90
2022/03/27 08:54:43;;;;;;;44.90;21.40;;;;;;;;;;5050488;28;20116;-93
2022/03/27 08:57:09;;;;;;;40.22;21.25;;;;;;;;;;5051392;28;20248;-92
2022/03/27 08:59:38;;;;;;;40.38;22.08;;;;;;;;;;5052663;28;20021;-91
2022/03/27 09:02:04;;;;;;;42.10;21.67;;;;;;;;;;5051111;28;20069;-94
2022/03/27 09:04:31;;;;;;;37.03;21.25;;;;;;;;;;5052142;28;20481;-92
2022/03/27 09:06:57;;;;;;;36.97;21.23;;;;;;;;;;5050135;28;20028;-92
2022/03/27 09:09:23;;;;;;;43.80;21.55;;;;;;;;;;5050213;28;20111;-91
2022/03/27 09:11:50;;;;;;;38.17;20.85;;;;;;;;;;5050613;28;20115;-93
2022/03/27 09:14:17;;;;;;;40.92;22.08;;;;;;;;;;5052611;28;20025;-94
2022/03/27 09:17:14;;;;;;;42.00;21.38;;;14.80;65.50;;;;;;5052374;28;20024;-92
2022/03/27 09:19:47;;;;;;;42.50;21.43;;;14.80;63.20;;;;;;5027441;28;20752;-92
2022/03/27 09:22:16;;;;;;;43.50;22.42;;;14.80;64.90;;;;;;5042391;28;20123;-93
2022/03/27 09:24:46;;;;;;;36.45;20.67;;;14.90;63.00;;;;;;5058738;28;20021;-89
2022/03/27 09:27:12;;;;;;;43.08;21.55;;;14.90;63.40;;;;;;5036382;28;20119;-92
2022/03/27 09:29:57;;;;;;;44.80;22.45;;;15.00;64.90;;;;;;5026563;28;20025;-93
2022/03/27 09:32:31;;;;;;;39.33;21.35;;;15.10;61.70;;;;;;5040314;28;20075;-91
2022/03/27 09:35:04;;;;;;;38.42;21.70;;;15.20;63.30;;;;;;5036220;28;20160;-92
2022/03/27 09:37:33;;;;;;;40.65;21.60;;;15.30;63.00;;;;;;5031211;28;20112;-94
2022/03/27 09:39:59;;;;;;;42.63;22.13;;;15.40;60.20;;;;;;5031004;28;20025;-92
2022/03/27 09:42:25;;;;;;;49.83;22.25;;;15.40;60.40;;;;;;5050038;28;20072;-91
2022/03/27 09:45:08;;;;;;;39.70;23.13;;;15.50;61.50;;;;;;5047739;28;20113;-92
2022/03/27 09:47:34;;;;;;;39.45;21.88;;;15.50;62.00;;;;;;5049787;28;20670;-91
2022/03/27 09:50:00;;;;;;;41.10;21.88;;;15.60;60.40;;;;;;5031933;28;20125;-90
2022/03/27 09:52:26;;;;;;;38.75;20.98;;;15.50;61.20;;;;;;5026210;28;20477;-93
2022/03/27 09:54:52;;;;;;;42.45;21.83;;;15.60;60.10;;;;;;5049892;28;20101;-83
2022/03/27 09:57:25;;;;;;;40.20;22.27;;;15.60;60.10;;;;;;5049983;28;20480;-88
2022/03/27 09:59:52;;;;;;;50.08;22.02;;;15.70;61.20;;;;;;5050187;28;20036;-90
2022/03/27 10:02:22;;;;;;;39.13;21.65;;;15.80;61.00;;;;;;5050057;28;20048;-87
2022/03/27 10:04:59;;;;;;;42.97;22.00;;;15.90;60.80;;;;;;5049289;28;20504;-86
2022/03/27 10:07:26;;;;;;;40.65;22.65;;;16.00;60.90;;;;;;5049452;28;20029;-88
2022/03/27 10:09:54;;;;;;;38.67;22.42;;;16.00;58.90;;;;;;5050077;28;20031;-88
2022/03/27 10:12:27;;;;;;;52.25;22.38;;;16.10;59.30;;;;;;5049888;28;20388;-87
2022/03/27 10:15:03;;;;;;;38.08;21.25;;;16.10;60.00;;;;;;5050467;28;20075;-91
2022/03/27 10:17:33;;;;;;;42.70;22.38;;;16.10;59.00;;;;;;5032235;28;20396;-94
2022/03/27 10:20:05;;;;;;;44.70;22.50;;;16.20;61.60;;;;;;5032166;28;20049;-89
2022/03/27 10:22:35;;;;;;;44.97;22.75;;;16.20;59.80;;;;;;5049391;28;20507;-94
2022/03/27 10:25:03;;;;;;;40.45;22.35;;;16.30;60.30;;;;;;5031722;28;20112;-89
2022/03/27 10:27:30;;;;;;;;;;;16.40;58.90;;;;;;5050028;28;20100;-91
2022/03/27 10:29:58;;;;;;;41.20;22.55;;;16.40;57.50;;;;;;5039228;28;19913;-91
2022/03/27 10:32:24;;;;;;;;;;;16.50;59.60;;;;;;5035697;28;20191;-91
2022/03/27 10:35:22;;;;;;;41.97;22.27;;;16.50;58.20;;;;;;5067609;28;19908;-91
2022/03/27 10:38:13;;;;;;;41.88;21.80;;;16.50;59.30;;;;;;5032212;28;20072;-93
2022/03/27 10:41:13;;;;;;;49.33;22.45;;;16.50;57.90;;;;;;5032015;28;20048;-93
2022/03/27 10:44:03;;;;;;;42.67;21.98;;;16.60;59.30;;;;;;5032051;28;20127;-93
2022/03/27 10:46:29;;;;;;;42.85;23.38;;;16.70;58.10;;;;;;5049584;28;20013;-94
2022/03/27 10:49:16;;;;;;;40.78;22.70;;;16.80;58.00;;;;;;5050197;28;20021;-89
2022/03/27 10:51:46;;;;;;;40.80;23.10;;;16.90;57.20;;;;;;5032128;28;20383;-95
2022/03/27 10:54:20;;;;;;;45.67;22.42;;;16.70;55.90;;;;;;5032064;28;20131;-93
2022/03/27 10:57:39;;;;;;;37.65;22.17;;;16.60;55.90;;;;;;5035643;28;20096;-95
2022/03/27 11:00:07;;;;;;;48.63;22.92;;;16.60;55.20;;;;;;5018010;28;20044;-94
2022/03/27 11:02:45;;;;;;;;;;;16.50;55.00;;;;;;5038804;28;20063;-92
2022/03/27 11:05:32;;;;;;;46.28;23.23;;;16.60;53.70;;;;;;5048780;28;19944;-94
2022/03/27 11:08:19;;;;;;;40.13;21.90;;;16.80;54.00;;;;;;5031700;28;20498;-91
2022/03/27 11:10:49;;;;;;;50.28;25.38;;;16.80;52.90;;;;;;5031877;28;20028;-92
2022/03/27 11:13:28;;;;;;;43.03;22.88;;;16.80;54.20;;;;;;5031370;28;20029;-90
2022/03/27 11:16:02;;;;;;;40.47;22.13;;;16.80;53.30;;;;;;5050073;28;20426;-91
2022/03/27 11:18:55;;;;;;;43.22;22.88;;;17.10;53.80;;;;;;5035300;28;20021;-91
2022/03/27 11:21:27;;;;;;;42.45;22.17;;;17.10;53.00;;;;;;5052321;28;20044;-91
2022/03/27 11:23:55;;;;;;;44.05;22.10;;;17.30;55.50;;;;;;5053364;28;20488;-90
2022/03/27 11:26:20;;;;;;;43.25;23.50;;;17.40;53.30;;;;;;5035802;28;20167;-90
2022/03/27 11:28:51;;;;;;;39.67;22.60;;;17.20;51.70;;;;;;5034581;28;20462;-88
2022/03/27 11:31:18;;;;;;;48.22;24.90;;;17.20;51.30;;;;;;5051955;28;20272;-87
2022/03/27 11:34:04;;;;;;;46.63;23.42;;;17.40;51.10;;;;;;5036378;28;20083;-89
2022/03/27 11:37:04;;;;;;;45.85;22.92;;;17.30;49.10;;;;;;5035692;28;20116;-90
2022/03/27 11:39:33;;;;;;;47.50;27.90;;;17.40;50.00;;;;;;5035663;28;20059;-89
2022/03/27 11:42:47;;;;;;;47.00;26.20;;;17.60;49.30;;;;;;5035800;28;20067;-90
2022/03/27 11:45:19;;;;;;;41.80;23.80;;;17.60;50.00;;;;;;5022270;28;20036;-92
2022/03/27 11:47:51;;;;;;;49.83;22.73;;;17.60;50.50;;;;;;5034817;28;20025;-89
2022/03/27 11:50:34;;;;;;;39.70;21.92;;;17.50;47.80;;;;;;5035057;28;20400;-88
2022/03/27 11:53:02;;;;;;;39.10;20.90;;;17.60;48.40;;;;;;5035387;28;20025;-90
2022/03/27 11:55:33;;;;;;;41.25;22.48;;;17.80;48.40;;;;;;5034971;28;20021;-87
2022/03/27 11:58:00;;;;;;;40.03;20.83;;;17.70;49.60;;;;;;5035121;28;20029;-92
2022/03/27 12:00:41;;;;;;;38.47;20.90;;;17.70;51.30;;;;;;5035649;28;20416;-88
2022/03/27 12:03:17;;;;;;;35.28;20.20;;;;;;;;;;5034956;28;20042;-92
2022/03/27 12:05:44;;;;;;;41.90;20.77;;;;;;;;;;5034745;28;20389;-88
2022/03/27 12:08:12;;;;;;;40.85;21.95;;;;;;;;;;5034861;28;20484;-90
2022/03/27 12:10:39;;;;;;;44.72;22.73;;;;;;;;;;5035174;28;20028;-92
2022/03/27 12:13:08;;;;;;;36.35;22.45;;;;;;;;;;5035081;28;20548;-88
2022/03/27 12:15:41;;;;;;;43.70;23.40;;;;;;;;;;5035124;28;20037;-93
2022/03/27 12:18:07;;;;;;;38.50;20.85;;;;;;;;;;5034963;28;20021;-91
2022/03/27 12:20:47;;;;;;;38.38;21.40;;;;;;;;;;5034782;28;20032;-93
2022/03/27 12:23:17;;;;;;;38.00;21.38;;;;;;;;;;5034646;28;20031;-91
2022/03/27 12:25:43;;;;;;;40.63;21.88;;;;;;;;;;5034679;28;20029;-93
2022/03/27 12:30:54;;;;;;;37.28;20.65;;;;;;;;;;5052520;28;20043;-87
2022/03/27 12:33:21;;;;;;;48.20;21.55;;;;;;;;;;5052294;28;20021;-87
2022/03/27 12:35:47;;;;;;;40.80;21.50;;;;;;;;;;5034518;28;20068;-87
2022/03/27 12:38:14;;;;;;;42.75;23.60;;;;;;;;;;5034295;28;20021;-90
2022/03/27 12:40:44;;;;;;;35.08;20.90;;;;;;;;;;5034642;28;20052;-92
2022/03/27 12:43:12;;;;;;;37.70;21.05;;;;;;;;;;5034119;28;20374;-92
2022/03/27 12:45:40;;;;;;;44.63;22.30;;;;;;;;;;5034474;28;20112;-89
2022/03/27 12:48:06;;;;;;;;;;;;;;;;;;5034505;28;20033;-89
2022/03/27 12:50:33;;;;;;;37.30;22.75;;;;;;;;;;5067383;28;19905;-94
2022/03/27 12:52:59;;;;;;;36.40;21.42;;;;;;;;;;5034664;28;20029;-92
2022/03/27 12:55:28;;;;;;;45.00;22.30;;;;;;;;;;5034295;28;20029;-88
2022/03/27 12:57:58;;;;;;;39.63;21.17;;;;;;;;;;5034200;28;20025;-91
2022/03/27 13:00:25;;;;;;;36.65;19.98;;;;;;;;;;5034089;28;20507;-93
2022/03/27 13:03:08;;;;;;;43.55;21.10;;;;;;;;;;5033850;28;20226;-88
2022/03/27 13:05:57;;;;;;;38.65;21.60;;;;;;;;;;5035314;28;20495;-90
2022/03/27 13:08:27;;;;;;;35.15;20.50;;;;;;;;;;4996804;28;20117;-93
2022/03/27 13:11:02;;;;;;;35.22;19.83;;;;;;;;;;5045520;28;20028;-88
2022/03/27 13:13:41;;;;;;;43.97;19.73;;;;;;;;;;5045091;28;20039;-88
2022/03/27 13:35:05;;;;;;;39.95;21.50;;;;;;;;;;4876909;29;20039;-88
2022/03/27 13:37:31;;;;;;;39.88;20.55;;;;;;;;;;4960701;28;20027;-91
2022/03/27 13:39:57;;;;;;;33.70;19.60;;;;;;;;;;5003356;28;20048;-93
2022/03/27 13:45:35;;;;;;;34.13;19.40;;;;;;;;;;5072921;28;20036;-86
2022/03/27 13:48:13;;;;;;;41.05;19.95;;;;;;;;;;5059592;28;20443;-93
2022/03/27 13:50:39;;;;;;;38.78;20.13;;;;;;;;;;5068542;28;20073;-91
2022/03/27 13:53:06;;;;;;;37.17;19.90;;;;;;;;;;5039962;28;20033;-90
2022/03/27 13:55:37;;;;;;;38.05;20.42;;;;;;;;;;5057907;28;20047;-88
2022/03/27 13:58:03;;;;;;;33.50;20.05;;;;;;;;;;5066083;28;20025;-89
2022/03/27 14:00:30;;;;;;;39.83;21.73;;;;;;;;;;5047408;28;20032;-89
2022/03/27 14:02:56;;;;;;;37.35;19.20;;;;;;;;;;5038101;28;20041;-90
2022/03/27 14:05:22;;;;;;;35.08;20.10;;;;;;;;;;5042537;28;20048;-89
2022/03/27 14:07:48;;;;;;;33.85;20.73;;;;;;;;;;5039739;28;20119;-91
2022/03/27 14:10:37;;;;;;;;;;;;;;;;;;;;;